createdAt,value
2022-10-01T08:25:23.929Z,16.40
2022-10-01T08:27:27.600Z,16.40
2022-10-01T08:29:30.000Z,15.90
2022-10-01T08:31:32.780Z,15.94
2022-10-01T08:33:36.672Z,15.99
2022-10-01T08:35:40.549Z,15.96
2022-10-01T08:37:42.756Z,15.99
2022-10-01T08:39:45.219Z,16.13
2022-10-01T08:42:18.765Z,16.01
2022-10-01T08:44:28.540Z,15.98
2022-10-01T08:46:35.709Z,16.11
2022-10-01T08:49:01.877Z,16.30
2022-10-01T08:51:09.769Z,16.33
2022-10-01T08:53:19.887Z,16.37
2022-10-01T08:55:26.790Z,16.36
2022-10-01T08:57:34.628Z,16.21
2022-10-01T08:59:44.107Z,16.32
2022-10-01T09:01:46.375Z,16.31
2022-10-01T09:03:49.406Z,16.23
2022-10-01T09:06:15.046Z,16.12
2022-10-01T09:08:45.298Z,16.11
2022-10-01T09:11:00.839Z,16.30
2022-10-01T09:13:13.962Z,16.71
2022-10-01T09:15:32.618Z,16.49
2022-10-01T09:17:49.970Z,16.60
2022-10-01T09:20:05.041Z,16.51
2022-10-01T09:22:34.414Z,16.71
2022-10-01T09:24:43.909Z,16.87
2022-10-01T09:26:51.306Z,17.03
2022-10-01T09:28:55.841Z,17.21
2022-10-01T09:31:14.112Z,17.51
2022-10-01T09:33:20.338Z,17.46
2022-10-01T09:35:48.556Z,17.69
2022-10-01T09:38:00.223Z,17.84
2022-10-01T09:40:19.958Z,17.85
2022-10-01T09:42:27.756Z,17.66
2022-10-01T09:44:32.247Z,17.83
2022-10-01T09:46:35.690Z,18.01
2022-10-01T09:48:44.721Z,18.32
2022-10-01T09:50:56.150Z,18.60
2022-10-01T09:53:00.684Z,18.39
2022-10-01T09:55:11.435Z,18.31
2022-10-01T09:57:19.908Z,17.99
2022-10-01T09:59:31.358Z,17.93
2022-10-01T10:01:43.968Z,18.22
2022-10-01T10:03:57.466Z,18.43
2022-10-01T10:06:01.270Z,18.67
2022-10-01T10:08:12.377Z,18.46
2022-10-01T10:10:26.318Z,18.66
2022-10-01T10:12:30.814Z,18.65
2022-10-01T10:14:40.808Z,18.54
2022-10-01T10:16:47.329Z,18.51
2022-10-01T10:18:53.444Z,18.27
2022-10-01T10:20:56.744Z,18.44
2022-10-01T10:23:21.827Z,18.69
2022-10-01T10:25:25.129Z,18.79
2022-10-01T10:34:32.827Z,19.43
2022-10-01T10:36:37.330Z,19.15
2022-10-01T10:38:39.844Z,19.17
2022-10-01T10:40:44.523Z,19.05
2022-10-01T10:42:50.788Z,18.72
2022-10-01T10:44:55.788Z,18.73
2022-10-01T10:47:06.614Z,18.80
2022-10-01T10:49:23.289Z,18.68
2022-10-01T10:51:27.762Z,18.50
2022-10-01T10:53:41.671Z,18.80
2022-10-01T10:55:56.133Z,18.91
2022-10-01T10:58:12.536Z,18.87
2022-10-01T11:00:18.475Z,18.81
2022-10-01T11:02:23.990Z,19.05
2022-10-01T11:04:38.173Z,19.09
2022-10-01T11:06:40.778Z,19.01
2022-10-01T11:08:43.854Z,19.05
2022-10-01T11:10:55.020Z,18.99
2022-10-01T11:13:21.977Z,19.03
2022-10-01T11:15:52.679Z,18.75
2022-10-01T11:17:59.339Z,18.96
2022-10-01T11:20:34.200Z,19.13
2022-10-01T11:23:06.510Z,20.08
2022-10-01T11:25:31.464Z,21.44
2022-10-01T11:27:45.927Z,23.79
2022-10-01T11:30:07.966Z,23.61
2022-10-01T11:32:34.591Z,24.05
2022-10-01T11:34:42.683Z,24.54
2022-10-01T11:37:03.948Z,23.46
2022-10-01T11:39:13.248Z,22.53
2022-10-01T11:41:24.854Z,21.63
2022-10-01T11:43:42.398Z,21.06
2022-10-01T11:45:49.275Z,20.75
2022-10-01T11:48:12.614Z,20.57
2022-10-01T11:50:19.655Z,20.22
2022-10-01T11:52:56.643Z,20.08
2022-10-01T11:55:35.950Z,20.10
2022-10-01T11:57:58.058Z,20.41
2022-10-01T12:00:09.480Z,20.77
2022-10-01T12:02:28.306Z,21.47
2022-10-01T12:04:39.244Z,21.72
2022-10-01T12:07:17.564Z,22.27
2022-10-01T12:09:41.686Z,24.15
2022-10-01T12:11:53.701Z,23.71
2022-10-01T12:14:06.137Z,23.06
2022-10-01T12:16:26.526Z,23.91
2022-10-01T12:19:04.613Z,25.56
2022-10-01T12:21:14.209Z,24.69
2022-10-01T12:23:29.979Z,23.23
2022-10-01T12:25:54.550Z,22.85
2022-10-01T12:28:12.479Z,21.70
2022-10-01T12:30:17.892Z,21.09
2022-10-01T12:32:23.686Z,20.44
2022-10-01T12:34:33.501Z,20.70
2022-10-01T12:36:44.584Z,20.36
2022-10-01T12:38:59.995Z,20.43
2022-10-01T12:41:08.175Z,19.86
2022-10-01T12:43:37.037Z,19.75
2022-10-01T12:46:02.467Z,19.72
2022-10-01T12:48:29.660Z,19.53
2022-10-01T12:50:47.158Z,19.46
2022-10-01T12:53:06.185Z,19.43
2022-10-01T12:55:50.131Z,19.33
2022-10-01T12:57:55.821Z,19.34
2022-10-01T13:00:19.348Z,19.23
2022-10-01T13:02:59.193Z,19.35
2022-10-01T13:05:16.086Z,19.51
2022-10-01T13:07:42.725Z,19.79
2022-10-01T13:10:08.483Z,20.00
2022-10-01T13:12:25.866Z,20.10
2022-10-01T13:14:29.493Z,20.13
2022-10-01T13:16:43.898Z,20.17
2022-10-01T13:19:14.540Z,20.19
2022-10-01T13:21:34.805Z,20.40
2022-10-01T13:23:49.129Z,20.39
2022-10-01T13:26:18.622Z,20.56
2022-10-01T13:28:58.404Z,20.96
2022-10-01T13:31:11.582Z,21.08
2022-10-01T13:33:24.000Z,21.29
2022-10-01T13:35:34.375Z,21.76
2022-10-01T13:37:40.192Z,21.30
2022-10-01T13:39:44.627Z,21.30
2022-10-01T13:41:48.065Z,21.02
2022-10-01T13:43:58.189Z,21.18
2022-10-01T13:46:11.217Z,20.91
2022-10-01T13:48:23.688Z,20.72
2022-10-01T13:50:26.457Z,20.59
2022-10-01T13:52:28.792Z,20.19
2022-10-01T13:54:43.300Z,20.08
2022-10-01T13:56:45.863Z,19.76
2022-10-01T13:58:50.320Z,19.41
2022-10-01T14:00:55.470Z,17.94
2022-10-01T14:03:23.546Z,17.26
2022-10-01T14:05:42.817Z,17.16
2022-10-01T14:07:47.789Z,16.86
2022-10-01T14:09:57.889Z,16.96
2022-10-01T14:12:26.523Z,17.31
2022-10-01T14:14:54.563Z,17.42
2022-10-01T14:16:58.801Z,17.53
2022-10-01T14:19:01.212Z,17.63
2022-10-01T14:21:28.726Z,17.55
2022-10-01T14:23:59.478Z,17.65
2022-10-01T14:26:20.269Z,17.48
2022-10-01T14:28:25.398Z,17.27
2022-10-01T14:30:48.650Z,17.08
2022-10-01T14:33:21.070Z,17.07
2022-10-01T14:35:48.015Z,17.22
2022-10-01T14:37:51.601Z,16.98
2022-10-01T14:40:12.374Z,16.87
2022-10-01T14:42:17.906Z,16.81
2022-10-01T14:44:21.208Z,16.94
2022-10-01T14:46:23.571Z,16.94
2022-10-01T14:48:28.394Z,17.07
2022-10-01T14:50:34.941Z,17.15
2022-10-01T14:52:41.225Z,17.21
2022-10-01T14:54:48.447Z,17.31
2022-10-01T14:56:51.853Z,17.36
2022-10-01T14:58:58.850Z,17.35
2022-10-01T15:01:01.998Z,17.45
2022-10-01T15:03:15.521Z,17.51
2022-10-01T15:05:25.482Z,17.42
2022-10-01T15:07:34.829Z,17.31
2022-10-01T15:09:37.264Z,17.28
2022-10-01T15:11:44.458Z,17.17
2022-10-01T15:13:49.618Z,17.16
2022-10-01T15:15:53.759Z,17.10
2022-10-01T15:17:56.055Z,17.08
2022-10-01T15:19:58.700Z,17.11
2022-10-01T15:22:02.330Z,17.08
2022-10-01T15:24:06.709Z,17.00
2022-10-01T15:26:14.123Z,16.94
2022-10-01T15:28:27.916Z,17.00
2022-10-01T15:30:30.976Z,16.90
2022-10-01T15:32:33.253Z,16.93
2022-10-01T15:34:38.999Z,16.86
2022-10-01T15:36:42.459Z,16.84
2022-10-01T15:38:49.020Z,16.81
2022-10-01T15:41:13.989Z,16.58
2022-10-01T15:43:38.301Z,16.58
2022-10-01T15:45:40.748Z,16.57
2022-10-01T15:47:56.874Z,16.52
2022-10-01T15:50:18.203Z,16.43
2022-10-01T15:52:38.906Z,16.40
2022-10-01T15:54:42.962Z,16.24
2022-10-01T15:56:48.627Z,16.07
2022-10-01T15:58:55.506Z,16.07
2022-10-01T16:01:21.524Z,16.15
2022-10-01T16:03:33.020Z,15.90
2022-10-01T16:05:44.756Z,16.05
2022-10-01T16:07:49.870Z,15.89
2022-10-01T16:09:56.950Z,15.98
2022-10-01T16:12:10.993Z,16.02
2022-10-01T16:14:33.879Z,16.07
2022-10-01T16:16:36.813Z,15.95
2022-10-01T16:18:40.278Z,15.98
2022-10-01T16:20:46.603Z,15.96
2022-10-01T16:22:51.551Z,16.01
2022-10-01T16:25:00.369Z,16.06
2022-10-01T16:27:02.601Z,16.06
2022-10-01T16:29:14.707Z,16.12
2022-10-01T16:31:17.008Z,15.90
2022-10-01T16:33:19.351Z,15.86
2022-10-01T16:35:23.722Z,15.81
2022-10-01T16:37:25.900Z,15.83
2022-10-01T16:39:28.137Z,15.74
2022-10-01T16:41:33.064Z,15.69
2022-10-01T16:43:36.391Z,15.63
2022-10-01T16:45:40.332Z,15.56
2022-10-01T16:47:42.931Z,15.59
2022-10-01T16:49:47.163Z,15.58
2022-10-01T16:51:52.973Z,15.52
2022-10-01T16:53:55.774Z,15.52
2022-10-01T16:55:58.212Z,15.58
2022-10-01T16:58:02.134Z,15.50
2022-10-01T17:00:05.354Z,15.43
2022-10-01T17:02:12.105Z,15.56
2022-10-01T17:04:14.381Z,15.54
2022-10-01T17:06:16.860Z,15.49
2022-10-01T17:08:19.103Z,15.51
2022-10-01T17:10:23.600Z,15.64
2022-10-01T17:12:27.019Z,15.71
2022-10-01T17:14:29.340Z,15.65
2022-10-01T17:16:31.723Z,15.78
2022-10-01T17:18:34.324Z,15.69
2022-10-01T17:20:40.344Z,15.71
2022-10-01T17:22:43.437Z,15.44
2022-10-01T17:24:45.935Z,15.48
2022-10-01T17:26:48.322Z,15.49
2022-10-01T17:28:50.575Z,15.48
2022-10-01T17:30:53.090Z,15.55
2022-10-01T17:33:00.035Z,15.41
2022-10-01T17:35:02.312Z,15.54
2022-10-01T17:37:04.876Z,15.64
2022-10-01T17:39:07.143Z,15.56
2022-10-01T17:41:09.331Z,15.44
2022-10-01T17:43:13.259Z,15.53
2022-10-01T17:45:15.916Z,15.57
2022-10-01T17:47:18.266Z,15.58
2022-10-01T17:49:21.604Z,15.60
2022-10-01T17:51:23.875Z,15.49
2022-10-01T17:53:30.811Z,15.17
2022-10-01T17:55:43.290Z,14.94
2022-10-01T17:57:45.531Z,14.93
2022-10-01T17:59:47.720Z,14.85
2022-10-01T18:01:59.139Z,14.80
2022-10-01T18:04:03.670Z,14.81
2022-10-01T18:06:07.677Z,14.80
2022-10-01T18:08:09.953Z,14.79
2022-10-01T18:10:13.135Z,14.80
2022-10-01T18:12:15.549Z,14.76
2022-10-01T18:14:17.826Z,14.72
2022-10-01T18:16:21.714Z,14.72
2022-10-01T18:19:51.387Z,14.64
2022-10-01T18:20:46.209Z,14.58
2022-10-01T18:22:49.400Z,14.62
2022-10-01T18:24:51.636Z,14.65
2022-10-01T18:26:54.246Z,14.71
2022-10-01T18:28:56.830Z,14.70
2022-10-01T18:31:11.212Z,14.65
2022-10-01T18:33:13.526Z,14.60
2022-10-01T18:35:36.252Z,14.61
2022-10-01T18:37:39.993Z,14.67
2022-10-01T18:39:49.968Z,14.73
2022-10-01T18:41:52.844Z,14.74
2022-10-01T18:43:55.061Z,14.57
2022-10-01T18:46:00.042Z,14.54
2022-10-01T18:48:11.816Z,14.68
2022-10-01T18:50:32.829Z,14.83
2022-10-01T18:52:50.626Z,14.84
2022-10-01T18:54:59.004Z,14.86
2022-10-01T18:57:03.920Z,14.96
2022-10-01T18:59:37.834Z,14.93
2022-10-01T19:01:58.906Z,14.91
2022-10-01T19:04:07.581Z,14.86
2022-10-01T19:06:45.098Z,14.89
2022-10-01T19:09:18.839Z,14.93
2022-10-01T19:11:29.929Z,14.94
2022-10-01T19:13:44.151Z,14.95
2022-10-01T19:16:34.598Z,14.93
2022-10-01T19:18:39.955Z,14.68
2022-10-01T19:20:55.096Z,14.66
2022-10-01T19:23:27.100Z,14.76
2022-10-01T19:25:35.035Z,14.48
2022-10-01T19:27:58.342Z,14.47
2022-10-01T19:30:06.856Z,14.55
2022-10-01T19:32:17.645Z,14.50
2022-10-01T19:34:28.548Z,14.57
2022-10-01T19:36:37.412Z,14.66
2022-10-01T19:38:42.436Z,14.73
2022-10-01T19:40:59.365Z,14.89
2022-10-01T19:43:28.034Z,14.85
2022-10-01T19:45:42.400Z,14.80
2022-10-01T19:47:52.220Z,14.98
2022-10-01T19:49:59.700Z,14.85
2022-10-01T19:52:10.629Z,14.74
2022-10-01T19:54:18.045Z,14.65
2022-10-01T19:56:28.170Z,14.71
2022-10-01T19:58:32.629Z,14.71
2022-10-01T20:00:34.914Z,14.65
2022-10-01T20:02:50.773Z,14.58
2022-10-01T20:05:02.873Z,14.65
2022-10-01T20:07:11.423Z,14.64
2022-10-01T20:09:28.149Z,14.57
2022-10-01T20:11:38.765Z,14.65
2022-10-01T20:14:10.423Z,14.58
2022-10-01T20:16:22.566Z,14.66
2022-10-01T20:18:36.754Z,14.67
2022-10-01T20:20:46.102Z,14.64
2022-10-01T20:23:01.196Z,14.69
2022-10-01T20:25:40.336Z,14.70
2022-10-01T20:27:49.542Z,14.68
2022-10-01T20:30:10.571Z,14.73
2022-10-01T20:32:26.881Z,14.75
2022-10-01T20:34:32.625Z,14.89
2022-10-01T20:36:56.206Z,14.79
2022-10-01T20:39:12.945Z,14.70
2022-10-01T20:41:19.894Z,14.67
2022-10-01T20:43:37.433Z,14.76
2022-10-01T20:45:40.665Z,14.69
2022-10-01T20:47:50.861Z,14.81
2022-10-01T20:50:06.873Z,14.83
2022-10-01T20:52:46.611Z,14.71
2022-10-01T20:54:52.907Z,14.76
2022-10-01T20:57:16.069Z,14.73
2022-10-01T20:59:26.318Z,14.64
2022-10-01T21:01:32.417Z,14.68
2022-10-01T21:03:41.657Z,14.73
2022-10-01T21:05:56.651Z,14.62
2022-10-01T21:08:24.788Z,14.58
2022-10-01T21:10:59.593Z,14.51
2022-10-01T21:13:30.828Z,14.42
2022-10-01T21:16:11.931Z,14.39
2022-10-01T21:18:22.014Z,14.38
2022-10-01T21:20:59.448Z,14.32
2022-10-01T21:23:45.685Z,14.29
2022-10-01T21:25:57.408Z,14.20
2022-10-01T21:28:09.602Z,14.11
2022-10-01T21:30:23.176Z,14.15
2022-10-01T21:32:37.074Z,14.03
2022-10-01T21:34:49.356Z,14.07
2022-10-01T21:37:08.792Z,14.13
2022-10-01T21:39:30.208Z,14.01
2022-10-01T21:41:54.260Z,13.98
2022-10-01T21:44:24.740Z,13.96
2022-10-01T21:47:00.897Z,13.89
2022-10-01T21:49:26.374Z,13.85
2022-10-01T21:51:45.154Z,13.83
2022-10-01T21:53:50.518Z,13.86
2022-10-01T21:56:35.858Z,13.83
2022-10-01T21:58:56.345Z,13.80
2022-10-01T22:01:26.814Z,13.69
2022-10-01T22:03:45.083Z,13.78
2022-10-01T22:06:09.909Z,13.73
2022-10-01T22:08:44.572Z,13.72
2022-10-01T22:10:50.450Z,13.72
2022-10-01T22:12:58.721Z,13.78
